Latest Weather Observations for Kununurra Airport

IDW60801

Issued at 11:35 am WST Tuesday 21 October 2014 (issued every 30 minutes, with the page automatically refreshed every 10 minutes)

About weather observations | Map of weather stations | Latest weather observations for WA | Other Formats
Station Details ID: 002056 Name: KUNUNURRA AERO Lat: -15.78 Lon: 128.71 Height: 44.0 m
Data from the previous 72 hours. | See also: Recent months at Kununurra Airport
Date/Time
WST
Temp
°C
App
Temp
°C
Dew
Point
Rel
Hum
%
Delta-T
°C
Wind Press
QNH
hPa
Press
MSL
hPa
Rain
since 9 am
mm
Dir
 
Spd
km/h
Gust
km/h
Spd
kts
Gust
kts
21/11:30am 35.5 35.5 18.2 36 11.3 NNE 15 26 8 14 1013.2 - 0.0
21/11:00am 35.4 35.6 18.6 37 11.0 NNE 15 26 8 14 1013.7 - 0.0
21/10:30am 35.3 35.8 19.3 39 10.6 N 15 22 8 12 1014.2 - 0.0
21/10:00am 33.2 33.5 20.5 47 8.5 NNW 19 30 10 16 1014.7 - 0.0
21/09:30am 32.8 32.1 20.3 47 8.3 NNW 24 30 13 16 1015.1 - 0.0
21/09:00am 31.7 31.9 20.6 51 7.4 N 20 30 11 16 1015.4 1015.1 0.0
21/08:30am 31.8 32.4 21.1 53 7.2 N 19 26 10 14 1015.6 - 0.0
21/08:00am 30.4 31.4 22.1 61 5.6 N 20 28 11 15 1015.6 - 0.0
21/07:30am 29.3 31.1 23.2 69 4.2 N 19 26 10 14 1015.6 - 0.0
21/07:00am 29.0 32.4 22.7 69 4.3 NNE 9 17 5 9 1015.5 - 0.0
21/06:30am 26.9 30.7 21.0 70 3.9 NNW 2 7 1 4 1015.2 - 0.0
21/06:00am 24.3 27.8 20.3 78 2.6 W 2 6 1 3 1014.8 1014.5 0.0
21/05:30am 22.7 24.9 19.7 83 1.9 N 7 11 4 6 1014.1 - 0.0
21/05:00am 22.9 23.7 19.0 78 2.5 NE 13 17 7 9 1013.6 - 0.0
21/04:30am 22.1 24.1 19.1 83 1.9 NE 7 13 4 7 1013.0 - 0.0
21/04:00am 22.6 24.4 19.6 83 1.9 WSW 9 11 5 6 1012.6 - 0.0
21/03:30am 24.1 26.4 19.9 77 2.7 S 7 11 4 6 1012.6 - 0.0
21/03:00am 24.2 26.1 20.5 80 2.4 SE 11 20 6 11 1012.2 1011.9 0.0
21/02:30am 22.7 25.7 19.2 80 2.2 NNW 2 9 1 5 1011.5 - 0.0
21/02:00am 23.3 26.8 19.6 80 2.4 CALM 0 0 0 0 1011.4 - 0.0
21/01:30am 23.9 26.7 20.5 81 2.2 ESE 6 7 3 4 1011.4 - 0.0
21/01:00am 24.0 27.6 19.8 77 2.7 CALM 0 0 0 0 1011.6 - 0.0
21/12:30am 24.6 26.9 18.6 69 3.8 ESE 4 7 2 4 1011.6 - 0.0
21/12:00am 25.2 28.5 20.8 76 2.9 ESE 4 13 2 7 1012.1 1011.8 0.0
 
Date/Time
WST
Temp
°C
App
Temp
°C
Dew
Point
Rel
Hum
%
Delta-T
°C
Wind Press
QNH
hPa
Press
MSL
hPa
Rain
since 9 am
mm
Dir
 
Spd
km/h
Gust
km/h
Spd
kts
Gust
kts
20/11:30pm 25.7 29.5 20.2 71 3.6 CALM 0 6 0 3 1012.5 - 0.0
20/11:00pm 25.9 28.5 20.4 71 3.6 NNW 7 11 4 6 1012.8 - 0.0
20/10:30pm 25.8 28.1 20.6 73 3.4 N 9 11 5 6 1013.0 - 0.0
20/10:00pm 26.7 29.2 19.9 66 4.4 NNW 6 7 3 4 1013.1 - 0.0
20/09:30pm 27.8 29.3 19.7 61 5.3 N 11 13 6 7 1013.3 - 0.0
20/09:00pm 28.3 29.1 19.0 57 6.0 N 13 15 7 8 1013.0 1012.7 0.0
20/08:30pm 28.6 28.9 18.7 55 6.4 N 15 17 8 9 1012.8 - 0.0
20/08:00pm 28.8 29.3 18.4 53 6.7 N 13 15 7 8 1012.5 - 0.0
20/07:30pm 29.2 28.7 17.0 47 7.7 N 15 17 8 9 1012.1 - 0.0
20/07:00pm 29.8 31.8 16.0 43 8.6 CALM 0 0 0 0 1011.6 - 0.0
20/06:30pm 31.6 32.9 14.0 34 10.7 CALM 0 0 0 0 1011.2 - 0.0
20/06:00pm 32.9 35.4 17.3 39 10.0 CALM 0 0 0 0 1010.8 1010.5 0.0
20/05:30pm 34.3 36.3 16.1 33 11.5 CALM 0 0 0 0 1010.4 - 0.0
20/05:00pm 36.7 36.2 12.1 22 14.8 S 6 7 3 4 1010.1 - 0.0
20/04:30pm 37.3 36.0 11.1 20 15.6 S 9 11 5 6 1009.8 - 0.0
20/04:00pm 37.8 36.2 10.3 19 16.2 S 9 13 5 7 1009.5 - 0.0
20/03:30pm 38.0 36.6 11.0 19 16.1 S 9 15 5 8 1009.5 - 0.0
20/03:00pm 37.8 35.8 10.3 19 16.2 S 11 17 6 9 1009.6 1009.3 0.0
20/02:30pm 37.8 36.6 10.3 19 16.2 NE 7 17 4 9 1009.8 - 0.0
20/02:00pm 37.1 35.3 10.7 20 15.6 NNE 11 17 6 9 1010.1 - 0.0
20/01:30pm 38.5 35.0 8.7 16 17.2 E 17 22 9 12 1010.4 - 0.0
20/01:00pm 37.5 34.6 10.9 20 15.8 NNE 17 26 9 14 1010.9 - 0.0
20/12:30pm 36.3 34.1 12.2 23 14.5 E 15 19 8 10 1011.6 - 0.0
20/12:00pm 37.1 35.5 13.8 25 14.4 NNE 15 26 8 14 1012.0 1011.7 0.0
20/11:30am 36.8 36.6 14.7 26 13.8 NNE 9 19 5 10 1012.7 - 0.0
20/11:00am 36.0 36.4 16.4 31 12.5 NE 9 15 5 8 1013.3 - 0.0
20/10:30am 35.6 35.6 16.2 31 12.3 N 11 15 6 8 1013.9 - 0.0
20/10:00am 34.6 34.6 16.3 33 11.6 ENE 11 17 6 9 1014.3 - 0.0
20/09:30am 34.3 35.0 17.1 36 11.0 NNE 9 15 5 8 1014.8 - 0.0
20/09:00am 32.6 33.9 18.4 43 9.2 NE 9 15 5 8 1015.2 1014.9 0.0
20/08:30am 31.8 33.2 19.5 48 8.1 NNE 11 19 6 10 1015.3 - 0.0
20/08:00am 30.3 32.5 20.5 55 6.5 NNE 9 13 5 7 1015.3 - 0.0
20/07:30am 28.7 31.7 21.2 64 5.0 N 7 11 4 6 1015.2 - 0.0
20/07:00am 27.9 31.2 21.5 68 4.3 ENE 6 9 3 5 1015.1 - 0.0
20/06:30am 26.3 29.8 21.8 76 3.0 S 6 7 3 4 1015.0 - 0.0
20/06:00am 24.6 27.4 20.9 80 2.4 S 7 9 4 5 1014.7 1014.4 0.0
20/05:30am 22.9 25.1 19.6 81 2.1 SSW 7 11 4 6 1014.3 - 0.0
20/05:00am 23.3 25.7 20.0 82 2.1 SSE 7 15 4 8 1014.1 - 0.0
20/04:30am 22.5 24.8 18.5 78 2.5 N 4 9 2 5 1013.3 - 0.0
20/04:00am 23.4 24.9 18.1 72 3.3 ENE 7 9 4 5 1012.8 - 0.0
20/03:30am 22.3 22.4 15.6 66 4.0 E 9 13 5 7 1012.5 - 0.0
20/03:00am 22.2 23.2 16.4 69 3.5 NE 6 9 3 5 1011.9 1011.6 0.0
20/02:30am 23.1 24.9 16.4 66 4.1 N 2 6 1 3 1011.8 - 0.0
20/02:00am 23.5 24.4 16.5 65 4.3 N 7 11 4 6 1011.7 - 0.0
20/01:30am 23.0 22.9 16.1 65 4.2 NW 11 11 6 6 1011.5 - 0.0
20/01:00am 24.3 25.2 16.5 61 4.8 NW 7 9 4 5 1011.6 - 0.0
20/12:30am 24.5 25.5 16.9 62 4.7 NNW 7 9 4 5 1011.8 - 0.0
20/12:00am 26.0 26.4 16.4 55 5.9 E 9 13 5 7 1011.9 1011.6 0.0
 
Date/Time
WST
Temp
°C
App
Temp
°C
Dew
Point
Rel
Hum
%
Delta-T
°C
Wind Press
QNH
hPa
Press
MSL
hPa
Rain
since 9 am
mm
Dir
 
Spd
km/h
Gust
km/h
Spd
kts
Gust
kts
19/11:30pm 24.3 27.7 19.3 73 3.2 CALM 0 0 0 0 1011.7 - 0.0
19/11:00pm 25.5 28.0 17.3 60 5.1 CALM 0 0 0 0 1011.9 - 0.0
19/10:30pm 26.1 27.6 14.6 49 6.9 CALM 0 0 0 0 1012.2 - 0.0
19/10:00pm 26.5 28.7 16.5 54 6.2 CALM 0 6 0 3 1012.4 - 0.0
19/09:30pm 27.3 27.8 16.5 51 6.7 ENE 9 9 5 5 1012.5 - 0.0
19/09:00pm 27.6 27.6 15.3 47 7.5 NNE 9 9 5 5 1012.6 1012.3 0.0
19/08:30pm 28.1 28.1 14.3 42 8.3 NW 7 7 4 4 1012.3 - 0.0
19/08:00pm 30.3 32.3 16.0 42 8.9 CALM 0 6 0 3 1012.3 - 0.0
19/07:30pm 30.2 29.6 15.7 41 9.0 N 13 15 7 8 1011.9 - 0.0
19/07:00pm 31.7 30.6 15.2 36 10.2 NW 15 19 8 10 1011.4 - 0.0
19/06:30pm 32.8 30.7 15.3 34 10.9 NW 20 26 11 14 1011.0 - 0.0
19/06:00pm 33.7 31.5 14.8 32 11.7 NW 20 28 11 15 1010.5 1010.2 0.0
19/05:30pm 32.7 31.8 12.6 29 12.0 NW 9 11 5 6 1010.1 - 0.0
19/05:00pm 35.6 33.7 9.1 20 15.2 W 9 11 5 6 1009.8 - 0.0
19/04:30pm 36.5 35.1 9.6 19 15.6 NNW 7 9 4 5 1009.6 - 0.0
19/04:00pm 37.3 35.0 7.5 16 16.8 NNW 9 13 5 7 1009.3 - 0.0
19/03:30pm 37.8 36.1 8.3 16 16.9 NNE 7 11 4 6 1009.2 - 0.0
19/03:00pm 38.5 35.7 6.8 14 17.8 SW 11 17 6 9 1009.4 1009.1 0.0
19/02:30pm 37.8 36.2 7.9 16 17.0 NW 6 13 3 7 1009.7 - 0.0
19/02:00pm 38.0 34.7 8.0 16 17.1 NE 15 28 8 15 1010.0 - 0.0
19/01:30pm 38.1 34.4 7.9 16 17.2 NNE 17 26 9 14 1010.3 - 0.0
19/01:00pm 38.0 35.1 8.3 16 17.0 NE 13 24 7 13 1010.6 - 0.0
19/12:30pm 37.9 33.4 7.1 15 17.3 NNE 20 26 11 14 1011.0 - 0.0
19/12:00pm 37.2 33.6 9.7 19 16.0 NE 19 26 10 14 1011.5 1011.2 0.0
19/11:30am 36.1 33.1 11.9 23 14.5 N 19 35 10 19 1012.2 - 0.0
19/11:00am 36.2 34.1 12.5 24 14.3 NNW 15 22 8 12 1012.8 - 0.0
19/10:30am 34.7 32.5 12.1 25 13.5 N 15 22 8 12 1013.5 - 0.0
19/10:00am 33.7 31.2 13.6 29 12.2 NNE 19 33 10 18 1014.0 - 0.0
19/09:30am 33.5 30.6 12.9 28 12.4 N 20 28 11 15 1014.6 - 0.0
19/09:00am 31.9 29.5 12.5 30 11.5 N 17 28 9 15 1014.8 1014.5 0.0
19/08:30am 31.1 30.1 15.6 39 9.6 N 15 19 8 10 1015.1 - 0.0
19/08:00am 29.0 27.3 14.7 41 8.7 NNE 17 22 9 12 1015.0 - 0.0
19/07:30am 26.8 27.0 15.7 50 6.8 N 9 15 5 8 1014.9 - 0.0
19/07:00am 24.5 26.0 14.6 54 5.9 CALM 0 6 0 3 1014.6 - 0.0
19/06:30am 22.6 23.7 15.6 64 4.2 S 4 9 2 5 1014.6 - 0.0
19/06:00am 20.2 20.5 16.0 77 2.5 WSW 9 11 5 6 1014.1 1013.8 0.0
19/05:30am 19.4 18.8 14.6 74 2.8 SE 11 17 6 9 1014.2 - 0.0
19/05:00am 16.6 16.9 11.0 69 3.0 CALM 0 9 0 5 1013.3 - 0.0
19/04:30am 17.2 18.5 14.0 81 1.8 CALM 0 0 0 0 1012.9 - 0.0
19/04:00am 16.5 15.7 14.0 85 1.4 WNW 11 15 6 8 1012.3 - 0.0
19/03:30am 16.9 15.9 12.2 74 2.6 N 9 13 5 7 1012.0 - 0.0
19/03:00am 17.3 17.3 13.6 79 2.1 ENE 6 9 3 5 1011.6 1011.3 0.0
19/02:30am 19.8 18.5 16.7 82 1.9 ESE 19 22 10 12 1011.5 - 0.0
19/02:00am 18.0 17.5 12.0 68 3.3 NE 6 6 3 3 1011.1 - 0.0
19/01:30am 17.9 18.5 11.9 68 3.3 CALM 0 0 0 0 1010.9 - 0.0
19/01:00am 18.3 18.9 12.0 66 3.5 CALM 0 0 0 0 1011.2 - 0.0
19/12:30am 19.3 19.4 10.2 55 4.9 CALM 0 0 0 0 1011.4 - 0.0
19/12:00am 20.2 20.6 11.1 56 5.0 CALM 0 0 0 0 1011.7 1011.4 0.0
 
Date/Time
WST
Temp
°C
App
Temp
°C
Dew
Point
Rel
Hum
%
Delta-T
°C
Wind Press
QNH
hPa
Press
MSL
hPa
Rain
since 9 am
mm
Dir
 
Spd
km/h
Gust
km/h
Spd
kts
Gust
kts
18/11:30pm 20.1 19.9 11.8 59 4.6 NE 4 6 2 3 1011.9 - 0.0
18/11:00pm 20.6 21.2 11.8 57 4.9 CALM 0 0 0 0 1012.0 - 0.0
18/10:30pm 21.4 22.2 12.4 56 5.1 CALM 0 0 0 0 1012.3 - 0.0
18/10:00pm 23.3 23.2 13.3 53 5.8 NE 6 7 3 4 1012.5 - 0.0
18/09:30pm 22.9 21.8 10.6 45 6.8 NNE 7 9 4 5 1012.5 - 0.0
18/09:00pm 24.2 24.6 12.5 48 6.7 SE 2 6 1 3 1012.4 1012.1 0.0
18/08:30pm 25.3 25.2 10.9 40 8.1 N 2 6 1 3 1012.3 - 0.0
18/08:00pm 25.7 25.4 13.2 46 7.3 NW 7 9 4 5 1012.1 - 0.0
18/07:30pm 25.3 23.7 11.4 41 7.9 N 11 13 6 7 1011.7 - 0.0
18/07:00pm 26.0 24.3 8.4 32 9.5 NNE 7 13 4 7 1011.5 - 0.0
18/06:30pm 26.8 22.9 5.5 25 11.0 NW 15 17 8 9 1010.9 - 0.0
18/06:00pm 28.2 27.4 6.5 25 11.5 CALM 0 0 0 0 1010.4 1010.1 0.0
18/05:30pm 31.7 30.7 5.6 19 13.9 CALM 0 0 0 0 1010.2 - 0.0
18/05:00pm 35.5 32.5 0.6 11 17.5 S 6 7 3 4 1009.9 - 0.0
18/04:30pm 37.0 32.3 -8.8 5 20.0 S 9 11 5 6 1009.6 - 0.0
18/04:00pm 38.0 33.1 -12.6 3 21.0 S 9 13 5 7 1009.3 - 0.0
18/03:30pm 37.9 32.3 -17.0 2 21.3 SW 11 17 6 9 1009.1 - 0.0
18/03:00pm 38.0 33.0 -13.7 3 21.1 S 9 15 5 8 1009.3 1009.0 0.0
18/02:30pm 38.3 32.1 -23.9 1 21.9 SE 13 24 7 13 1009.5 - 0.0
18/02:00pm 37.8 32.2 -18.0 2 21.3 SE 11 22 6 12 1009.8 - 0.0
18/01:30pm 38.5 30.2 -26.2 1 22.1 NE 24 35 13 19 1010.0 - 0.0
18/01:00pm 37.7 32.4 -20.8 2 21.4 ENE 9 20 5 11 1010.5 - 0.0
18/12:30pm 37.5 31.5 -19.4 2 21.2 SSE 13 22 7 12 1010.9 - 0.0
18/12:00pm 37.2 31.7 -16.0 3 20.8 ESE 11 20 6 11 1011.4 1011.1 0.0

Other Formats:

Comma delimited format used in spreadsheet applications
http://www.bom.gov.au/fwo/IDW60801/IDW60801.94216.axf

JavaScript Object Notation format (JSON) in row-major order
http://www.bom.gov.au/fwo/IDW60801/IDW60801.94216.json